sensor_id;sensor_type;location;lat;lon;timestamp;temperature;humidity
8487;DHT22;4280;50.534;8.708;2022-12-16T05:07:08;-6.30;1.00
8487;DHT22;4280;50.534;8.708;2022-12-16T05:09:54;-7.90;1.00
8487;DHT22;4280;50.534;8.708;2022-12-16T05:12:38;-8.00;1.00
8487;DHT22;4280;50.534;8.708;2022-12-16T05:15:23;-8.10;1.00
8487;DHT22;4280;50.534;8.708;2022-12-16T05:18:08;-8.10;1.00
8487;DHT22;4280;50.534;8.708;2022-12-16T05:20:53;-8.10;1.00
8487;DHT22;4280;50.534;8.708;2022-12-16T05:23:40;-8.10;1.00
8487;DHT22;4280;50.534;8.708;2022-12-16T05:26:25;-8.20;1.00
8487;DHT22;4280;50.534;8.708;2022-12-16T05:29:10;-8.10;1.00
8487;DHT22;4280;50.534;8.708;2022-12-16T05:31:55;-8.20;1.00
8487;DHT22;4280;50.534;8.708;2022-12-16T05:34:40;-8.20;1.00
8487;DHT22;4280;50.534;8.708;2022-12-16T05:37:25;-8.10;1.00
8487;DHT22;4280;50.534;8.708;2022-12-16T05:40:13;-8.10;1.00
8487;DHT22;4280;50.534;8.708;2022-12-16T05:43:01;-8.10;1.00
8487;DHT22;4280;50.534;8.708;2022-12-16T05:45:46;-8.20;1.00
8487;DHT22;4280;50.534;8.708;2022-12-16T05:48:31;-8.20;1.00
8487;DHT22;4280;50.534;8.708;2022-12-16T05:51:16;-8.20;1.00
8487;DHT22;4280;50.534;8.708;2022-12-16T05:54:01;-8.30;1.00
8487;DHT22;4280;50.534;8.708;2022-12-16T05:56:49;-8.40;1.00
8487;DHT22;4280;50.534;8.708;2022-12-16T05:59:34;-8.40;1.00
8487;DHT22;4280;50.534;8.708;2022-12-16T06:02:19;-8.40;1.00
8487;DHT22;4280;50.534;8.708;2022-12-16T06:05:05;-8.40;1.00
8487;DHT22;4280;50.534;8.708;2022-12-16T06:07:49;-8.30;1.00
8487;DHT22;4280;50.534;8.708;2022-12-16T06:10:34;-8.30;1.00
8487;DHT22;4280;50.534;8.708;2022-12-16T06:13:21;-8.40;1.00
8487;DHT22;4280;50.534;8.708;2022-12-16T06:16:06;-8.40;1.00
8487;DHT22;4280;50.534;8.708;2022-12-16T06:18:50;-8.30;1.00
8487;DHT22;4280;50.534;8.708;2022-12-16T06:21:36;-8.30;1.00
8487;DHT22;4280;50.534;8.708;2022-12-16T06:24:20;-8.30;1.00
8487;DHT22;4280;50.534;8.708;2022-12-16T06:27:05;-8.40;1.00
8487;DHT22;4280;50.534;8.708;2022-12-16T06:29:53;-8.40;1.00
8487;DHT22;4280;50.534;8.708;2022-12-16T06:32:41;-8.40;1.00
8487;DHT22;4280;50.534;8.708;2022-12-16T06:35:25;-8.40;1.00
8487;DHT22;4280;50.534;8.708;2022-12-16T06:38:10;-8.40;1.00
8487;DHT22;4280;50.534;8.708;2022-12-16T06:40:54;-8.40;1.00
8487;DHT22;4280;50.534;8.708;2022-12-16T06:43:40;-8.40;1.00
8487;DHT22;4280;50.534;8.708;2022-12-16T06:46:28;-7.90;1.00
8487;DHT22;4280;50.534;8.708;2022-12-16T06:49:14;-8.10;1.00
8487;DHT22;4280;50.534;8.708;2022-12-16T06:51:58;-8.40;1.00
8487;DHT22;4280;50.534;8.708;2022-12-16T06:54:43;-8.60;1.00
8487;DHT22;4280;50.534;8.708;2022-12-16T06:57:27;-8.70;1.00
8487;DHT22;4280;50.534;8.708;2022-12-16T07:00:11;-8.80;1.00
8487;DHT22;4280;50.534;8.708;2022-12-16T07:03:05;-8.90;1.00
8487;DHT22;4280;50.534;8.708;2022-12-16T07:05:51;-9.00;1.00
8487;DHT22;4280;50.534;8.708;2022-12-16T07:08:35;-9.10;1.00
8487;DHT22;4280;50.534;8.708;2022-12-16T07:11:20;-9.20;1.00
8487;DHT22;4280;50.534;8.708;2022-12-16T07:14:05;-9.20;1.00
8487;DHT22;4280;50.534;8.708;2022-12-16T07:16:49;-9.40;1.00
8487;DHT22;4280;50.534;8.708;2022-12-16T07:19:37;-9.50;1.00
8487;DHT22;4280;50.534;8.708;2022-12-16T07:22:23;-9.60;1.00
8487;DHT22;4280;50.534;8.708;2022-12-16T07:25:08;-9.70;1.00
8487;DHT22;4280;50.534;8.708;2022-12-16T07:27:56;-9.70;1.00
8487;DHT22;4280;50.534;8.708;2022-12-16T07:30:42;-9.70;1.00
8487;DHT22;4280;50.534;8.708;2022-12-16T07:33:28;-9.60;1.00
8487;DHT22;4280;50.534;8.708;2022-12-16T07:36:15;-9.60;1.00
8487;DHT22;4280;50.534;8.708;2022-12-16T07:39:15;-9.50;1.00
8487;DHT22;4280;50.534;8.708;2022-12-16T07:41:59;-9.50;1.00
8487;DHT22;4280;50.534;8.708;2022-12-16T07:44:45;-9.40;1.00
8487;DHT22;4280;50.534;8.708;2022-12-16T07:47:30;-9.40;1.00
8487;DHT22;4280;50.534;8.708;2022-12-16T07:50:14;-9.40;1.00
8487;DHT22;4280;50.534;8.708;2022-12-16T07:53:02;-9.30;1.00
8487;DHT22;4280;50.534;8.708;2022-12-16T07:55:46;-9.40;1.00
8487;DHT22;4280;50.534;8.708;2022-12-16T07:58:31;-9.30;1.00
8487;DHT22;4280;50.534;8.708;2022-12-16T08:01:15;-9.20;1.00
8487;DHT22;4280;50.534;8.708;2022-12-16T08:03:59;-9.10;1.00
8487;DHT22;4280;50.534;8.708;2022-12-16T08:06:44;-9.00;1.00
8487;DHT22;4280;50.534;8.708;2022-12-16T08:09:31;-9.00;1.00
8487;DHT22;4280;50.534;8.708;2022-12-16T08:12:16;-8.90;1.00
8487;DHT22;4280;50.534;8.708;2022-12-16T08:15:00;-8.90;1.00
8487;DHT22;4280;50.534;8.708;2022-12-16T08:17:47;-8.80;1.00
8487;DHT22;4280;50.534;8.708;2022-12-16T08:20:40;-8.70;1.00
8487;DHT22;4280;50.534;8.708;2022-12-16T08:23:24;-8.60;1.00
8487;DHT22;4280;50.534;8.708;2022-12-16T08:26:13;-8.60;1.00
8487;DHT22;4280;50.534;8.708;2022-12-16T08:28:58;-8.50;1.00
8487;DHT22;4280;50.534;8.708;2022-12-16T08:32:01;-8.50;1.00
8487;DHT22;4280;50.534;8.708;2022-12-16T08:34:46;-8.40;1.00
8487;DHT22;4280;50.534;8.708;2022-12-16T08:37:31;-8.40;1.00
8487;DHT22;4280;50.534;8.708;2022-12-16T08:40:15;-8.50;1.00
8487;DHT22;4280;50.534;8.708;2022-12-16T08:43:06;-8.40;1.00
8487;DHT22;4280;50.534;8.708;2022-12-16T08:45:51;-8.50;1.00
8487;DHT22;4280;50.534;8.708;2022-12-16T08:48:37;-8.40;1.00
8487;DHT22;4280;50.534;8.708;2022-12-16T08:51:24;-8.40;1.00
8487;DHT22;4280;50.534;8.708;2022-12-16T08:54:08;-8.30;1.00
8487;DHT22;4280;50.534;8.708;2022-12-16T08:56:53;-8.20;1.00
8487;DHT22;4280;50.534;8.708;2022-12-16T08:59:40;-8.10;1.00
8487;DHT22;4280;50.534;8.708;2022-12-16T09:02:26;-7.90;1.00
8487;DHT22;4280;50.534;8.708;2022-12-16T09:05:10;-7.80;1.00
8487;DHT22;4280;50.534;8.708;2022-12-16T09:07:53;-7.60;1.00
8487;DHT22;4280;50.534;8.708;2022-12-16T09:10:39;-7.50;1.00
8487;DHT22;4280;50.534;8.708;2022-12-16T09:13:22;-7.40;1.00
8487;DHT22;4280;50.534;8.708;2022-12-16T09:16:07;-7.30;1.00
8487;DHT22;4280;50.534;8.708;2022-12-16T09:18:49;-7.10;1.00
8487;DHT22;4280;50.534;8.708;2022-12-16T09:21:32;-6.90;1.00
8487;DHT22;4280;50.534;8.708;2022-12-16T09:24:15;-6.80;1.00
8487;DHT22;4280;50.534;8.708;2022-12-16T09:26:57;-6.70;1.00
8487;DHT22;4280;50.534;8.708;2022-12-16T09:29:40;-6.80;1.00
8487;DHT22;4280;50.534;8.708;2022-12-16T09:32:25;-6.60;1.00
8487;DHT22;4280;50.534;8.708;2022-12-16T09:35:07;-6.40;1.00
8487;DHT22;4280;50.534;8.708;2022-12-16T09:37:50;-6.30;1.00
8487;DHT22;4280;50.534;8.708;2022-12-16T09:40:32;-6.20;1.00
8487;DHT22;4280;50.534;8.708;2022-12-16T09:43:21;-6.20;1.00
8487;DHT22;4280;50.534;8.708;2022-12-16T09:46:13;-6.20;1.00
8487;DHT22;4280;50.534;8.708;2022-12-16T09:49:03;-6.20;1.00
8487;DHT22;4280;50.534;8.708;2022-12-16T09:51:53;-6.10;1.00
8487;DHT22;4280;50.534;8.708;2022-12-16T09:54:46;-5.90;1.00
8487;DHT22;4280;50.534;8.708;2022-12-16T09:57:29;-5.90;1.00
8487;DHT22;4280;50.534;8.708;2022-12-16T10:00:16;-5.80;1.00
8487;DHT22;4280;50.534;8.708;2022-12-16T10:03:01;-5.70;1.00
8487;DHT22;4280;50.534;8.708;2022-12-16T10:06:06;-5.60;1.00
8487;DHT22;4280;50.534;8.708;2022-12-16T10:08:55;-5.50;1.00
8487;DHT22;4280;50.534;8.708;2022-12-16T10:11:43;-5.40;1.00
8487;DHT22;4280;50.534;8.708;2022-12-16T10:14:30;-5.30;1.00
8487;DHT22;4280;50.534;8.708;2022-12-16T10:17:17;-5.20;1.00
8487;DHT22;4280;50.534;8.708;2022-12-16T10:20:04;-5.20;1.00
8487;DHT22;4280;50.534;8.708;2022-12-16T10:22:55;-5.10;1.00
8487;DHT22;4280;50.534;8.708;2022-12-16T10:25:41;-5.00;1.00
8487;DHT22;4280;50.534;8.708;2022-12-16T10:28:33;-4.80;1.00
8487;DHT22;4280;50.534;8.708;2022-12-16T10:31:21;-4.70;1.00
8487;DHT22;4280;50.534;8.708;2022-12-16T10:34:04;-4.70;1.00
8487;DHT22;4280;50.534;8.708;2022-12-16T10:36:50;-4.60;1.00
8487;DHT22;4280;50.534;8.708;2022-12-16T10:39:40;-4.40;1.00
8487;DHT22;4280;50.534;8.708;2022-12-16T10:42:25;-4.20;1.00
8487;DHT22;4280;50.534;8.708;2022-12-16T10:45:14;-4.10;1.00
8487;DHT22;4280;50.534;8.708;2022-12-16T10:48:00;-3.90;1.00
8487;DHT22;4280;50.534;8.708;2022-12-16T10:50:42;-3.80;1.00
8487;DHT22;4280;50.534;8.708;2022-12-16T10:53:25;-3.70;1.00
8487;DHT22;4280;50.534;8.708;2022-12-16T10:56:16;-3.60;1.00
8487;DHT22;4280;50.534;8.708;2022-12-16T10:59:07;-3.50;1.00
8487;DHT22;4280;50.534;8.708;2022-12-16T11:01:57;-3.30;1.00
8487;DHT22;4280;50.534;8.708;2022-12-16T11:04:40;-3.30;1.00
8487;DHT22;4280;50.534;8.708;2022-12-16T11:07:24;-3.20;1.00
8487;DHT22;4280;50.534;8.708;2022-12-16T11:10:25;-3.00;1.00
8487;DHT22;4280;50.534;8.708;2022-12-16T11:13:24;-2.90;1.00
8487;DHT22;4280;50.534;8.708;2022-12-16T11:16:10;-2.90;1.00
8487;DHT22;4280;50.534;8.708;2022-12-16T11:18:54;-2.80;1.00
8487;DHT22;4280;50.534;8.708;2022-12-16T11:21:36;-2.70;1.00
8487;DHT22;4280;50.534;8.708;2022-12-16T11:24:19;-2.70;1.00
8487;DHT22;4280;50.534;8.708;2022-12-16T11:27:20;-2.60;1.00
8487;DHT22;4280;50.534;8.708;2022-12-16T11:30:15;-2.50;1.00
8487;DHT22;4280;50.534;8.708;2022-12-16T11:33:13;-2.40;1.00
8487;DHT22;4280;50.534;8.708;2022-12-16T11:36:04;-2.40;1.00
8487;DHT22;4280;50.534;8.708;2022-12-16T11:38:49;-2.30;1.00
8487;DHT22;4280;50.534;8.708;2022-12-16T11:41:34;-2.30;1.00
8487;DHT22;4280;50.534;8.708;2022-12-16T11:44:19;-2.20;1.00
8487;DHT22;4280;50.534;8.708;2022-12-16T11:47:10;-2.00;1.00
8487;DHT22;4280;50.534;8.708;2022-12-16T11:49:57;-2.00;1.00
8487;DHT22;4280;50.534;8.708;2022-12-16T11:52:40;-2.00;1.00
8487;DHT22;4280;50.534;8.708;2022-12-16T11:55:35;-1.90;1.00
8487;DHT22;4280;50.534;8.708;2022-12-16T11:58:39;-2.00;1.00
8487;DHT22;4280;50.534;8.708;2022-12-16T12:01:27;-2.00;1.00
8487;DHT22;4280;50.534;8.708;2022-12-16T12:04:15;-2.00;1.00
8487;DHT22;4280;50.534;8.708;2022-12-16T12:07:02;-2.00;1.00
8487;DHT22;4280;50.534;8.708;2022-12-16T12:10:13;-2.00;1.00
8487;DHT22;4280;50.534;8.708;2022-12-16T12:13:04;-2.00;1.00
8487;DHT22;4280;50.534;8.708;2022-12-16T12:15:54;-2.00;1.00
8487;DHT22;4280;50.534;8.708;2022-12-16T12:18:40;-2.00;1.00
8487;DHT22;4280;50.534;8.708;2022-12-16T12:21:36;-1.90;1.00
8487;DHT22;4280;50.534;8.708;2022-12-16T12:24:24;-1.90;1.00
8487;DHT22;4280;50.534;8.708;2022-12-16T12:27:12;-1.90;1.00
8487;DHT22;4280;50.534;8.708;2022-12-16T12:29:59;-1.90;1.00
8487;DHT22;4280;50.534;8.708;2022-12-16T12:32:46;-1.90;1.00
8487;DHT22;4280;50.534;8.708;2022-12-16T12:35:38;-1.90;1.00
8487;DHT22;4280;50.534;8.708;2022-12-16T12:38:30;-1.90;1.00
8487;DHT22;4280;50.534;8.708;2022-12-16T12:41:17;-1.90;1.00
8487;DHT22;4280;50.534;8.708;2022-12-16T12:44:01;-1.90;1.00
8487;DHT22;4280;50.534;8.708;2022-12-16T12:46:49;-1.90;1.00
8487;DHT22;4280;50.534;8.708;2022-12-16T12:49:36;-1.90;1.00
8487;DHT22;4280;50.534;8.708;2022-12-16T12:52:26;-1.80;1.00
8487;DHT22;4280;50.534;8.708;2022-12-16T12:55:22;-1.80;1.00
8487;DHT22;4280;50.534;8.708;2022-12-16T12:58:20;-1.70;1.00
8487;DHT22;4280;50.534;8.708;2022-12-16T13:01:03;-1.70;1.00
8487;DHT22;4280;50.534;8.708;2022-12-16T13:03:47;-1.70;1.00
8487;DHT22;4280;50.534;8.708;2022-12-16T13:06:34;-1.70;1.00
8487;DHT22;4280;50.534;8.708;2022-12-16T13:09:25;-1.80;1.00
8487;DHT22;4280;50.534;8.708;2022-12-16T13:12:23;-1.90;1.00
8487;DHT22;4280;50.534;8.708;2022-12-16T13:15:14;-2.00;1.00
8487;DHT22;4280;50.534;8.708;2022-12-16T13:18:12;-2.00;1.00
8487;DHT22;4280;50.534;8.708;2022-12-16T13:21:03;-2.00;1.00
8487;DHT22;4280;50.534;8.708;2022-12-16T13:24:18;-2.00;1.00
8487;DHT22;4280;50.534;8.708;2022-12-16T13:27:18;-2.00;1.00
8487;DHT22;4280;50.534;8.708;2022-12-16T13:30:16;-1.90;1.00
8487;DHT22;4280;50.534;8.708;2022-12-16T13:33:07;-1.90;1.00
8487;DHT22;4280;50.534;8.708;2022-12-16T13:36:08;-1.90;1.00
8487;DHT22;4280;50.534;8.708;2022-12-16T13:38:55;-1.90;1.00
8487;DHT22;4280;50.534;8.708;2022-12-16T13:41:47;-1.90;1.00
8487;DHT22;4280;50.534;8.708;2022-12-16T13:50:46;-2.00;1.00
8487;DHT22;4280;50.534;8.708;2022-12-16T13:53:36;-2.00;1.00
8487;DHT22;4280;50.534;8.708;2022-12-16T13:56:25;-2.00;1.00
8487;DHT22;4280;50.534;8.708;2022-12-16T13:59:16;-2.00;1.00
8487;DHT22;4280;50.534;8.708;2022-12-16T14:02:10;-2.00;1.00
8487;DHT22;4280;50.534;8.708;2022-12-16T14:05:02;-2.00;1.00
8487;DHT22;4280;50.534;8.708;2022-12-16T14:07:47;-2.00;1.00
8487;DHT22;4280;50.534;8.708;2022-12-16T14:10:32;-2.00;1.00
8487;DHT22;4280;50.534;8.708;2022-12-16T14:13:21;-2.10;1.00
8487;DHT22;4280;50.534;8.708;2022-12-16T14:16:10;-2.10;1.00
8487;DHT22;4280;50.534;8.708;2022-12-16T14:19:13;-2.10;1.00
8487;DHT22;4280;50.534;8.708;2022-12-16T14:22:07;-2.10;1.00
8487;DHT22;4280;50.534;8.708;2022-12-16T14:25:01;-2.10;1.00
8487;DHT22;4280;50.534;8.708;2022-12-16T14:27:51;-2.10;1.00
8487;DHT22;4280;50.534;8.708;2022-12-16T14:30:35;-2.20;1.00
8487;DHT22;4280;50.534;8.708;2022-12-16T14:33:21;-2.20;1.00
8487;DHT22;4280;50.534;8.708;2022-12-16T14:39:13;-2.30;1.00
8487;DHT22;4280;50.534;8.708;2022-12-16T14:42:03;-2.20;1.00
8487;DHT22;4280;50.534;8.708;2022-12-16T14:44:48;-2.30;1.00
8487;DHT22;4280;50.534;8.708;2022-12-16T14:47:32;-2.30;1.00
8487;DHT22;4280;50.534;8.708;2022-12-16T14:50:20;-2.40;1.00
8487;DHT22;4280;50.534;8.708;2022-12-16T14:53:15;-2.50;1.00
8487;DHT22;4280;50.534;8.708;2022-12-16T14:56:17;-2.60;1.00
8487;DHT22;4280;50.534;8.708;2022-12-16T14:59:13;-2.60;1.00
8487;DHT22;4280;50.534;8.708;2022-12-16T15:01:59;-2.70;1.00
8487;DHT22;4280;50.534;8.708;2022-12-16T15:04:52;-2.80;1.00
8487;DHT22;4280;50.534;8.708;2022-12-16T15:07:37;-2.80;1.00
8487;DHT22;4280;50.534;8.708;2022-12-16T15:10:21;-2.80;1.00
8487;DHT22;4280;50.534;8.708;2022-12-16T15:13:11;-2.70;1.00
8487;DHT22;4280;50.534;8.708;2022-12-16T15:15:56;-2.80;1.00
8487;DHT22;4280;50.534;8.708;2022-12-16T15:18:39;-2.90;1.00
8487;DHT22;4280;50.534;8.708;2022-12-16T15:21:23;-2.90;1.00
8487;DHT22;4280;50.534;8.708;2022-12-16T15:24:06;-2.80;1.00
8487;DHT22;4280;50.534;8.708;2022-12-16T15:26:49;-2.80;1.00
8487;DHT22;4280;50.534;8.708;2022-12-16T15:29:35;-2.90;1.00
8487;DHT22;4280;50.534;8.708;2022-12-16T15:32:28;-3.00;1.00
8487;DHT22;4280;50.534;8.708;2022-12-16T15:35:12;-3.20;1.00
8487;DHT22;4280;50.534;8.708;2022-12-16T15:38:09;-3.30;1.00
8487;DHT22;4280;50.534;8.708;2022-12-16T15:40:52;-3.40;1.00
8487;DHT22;4280;50.534;8.708;2022-12-16T15:43:39;-3.40;1.00
8487;DHT22;4280;50.534;8.708;2022-12-16T15:46:26;-3.30;1.00
8487;DHT22;4280;50.534;8.708;2022-12-16T15:49:14;-3.20;1.00
8487;DHT22;4280;50.534;8.708;2022-12-16T15:51:59;-3.20;1.00
8487;DHT22;4280;50.534;8.708;2022-12-16T15:54:48;-3.20;1.00
8487;DHT22;4280;50.534;8.708;2022-12-16T15:57:32;-3.20;1.00
8487;DHT22;4280;50.534;8.708;2022-12-16T16:00:17;-3.20;1.00
8487;DHT22;4280;50.534;8.708;2022-12-16T16:03:04;-3.10;1.00
8487;DHT22;4280;50.534;8.708;2022-12-16T16:05:56;-3.20;1.00
8487;DHT22;4280;50.534;8.708;2022-12-16T16:08:38;-3.40;1.00
8487;DHT22;4280;50.534;8.708;2022-12-16T16:11:20;-3.50;1.00
8487;DHT22;4280;50.534;8.708;2022-12-16T16:14:03;-3.60;1.00
8487;DHT22;4280;50.534;8.708;2022-12-16T16:16:45;-3.70;1.00
8487;DHT22;4280;50.534;8.708;2022-12-16T16:19:30;-3.80;1.00
8487;DHT22;4280;50.534;8.708;2022-12-16T16:22:13;-3.80;1.00
8487;DHT22;4280;50.534;8.708;2022-12-16T16:24:57;-3.80;1.00
8487;DHT22;4280;50.534;8.708;2022-12-16T16:27:40;-3.80;1.00
8487;DHT22;4280;50.534;8.708;2022-12-16T16:30:22;-4.00;1.00
8487;DHT22;4280;50.534;8.708;2022-12-16T16:33:04;-4.00;1.00
8487;DHT22;4280;50.534;8.708;2022-12-16T16:35:49;-4.10;1.00
8487;DHT22;4280;50.534;8.708;2022-12-16T16:38:32;-4.20;1.00
8487;DHT22;4280;50.534;8.708;2022-12-16T16:41:14;-4.30;1.00
8487;DHT22;4280;50.534;8.708;2022-12-16T16:43:57;-4.50;1.00
8487;DHT22;4280;50.534;8.708;2022-12-16T16:46:40;-4.50;1.00
8487;DHT22;4280;50.534;8.708;2022-12-16T16:49:23;-4.60;1.00
8487;DHT22;4280;50.534;8.708;2022-12-16T16:52:13;-4.80;1.00
8487;DHT22;4280;50.534;8.708;2022-12-16T16:54:57;-4.80;1.00
8487;DHT22;4280;50.534;8.708;2022-12-16T16:57:39;-4.80;1.00
8487;DHT22;4280;50.534;8.708;2022-12-16T17:00:22;-4.90;1.00
8487;DHT22;4280;50.534;8.708;2022-12-16T17:03:04;-4.80;1.00
8487;DHT22;4280;50.534;8.708;2022-12-16T17:09:01;-5.00;1.00
8487;DHT22;4280;50.534;8.708;2022-12-16T17:11:46;-5.00;1.00
8487;DHT22;4280;50.534;8.708;2022-12-16T17:14:33;-5.00;1.00
8487;DHT22;4280;50.534;8.708;2022-12-16T17:17:19;-5.00;1.00
8487;DHT22;4280;50.534;8.708;2022-12-16T17:20:05;-5.00;1.00
8487;DHT22;4280;50.534;8.708;2022-12-16T17:22:52;-4.90;1.00
8487;DHT22;4280;50.534;8.708;2022-12-16T17:25:43;-4.90;1.00
8487;DHT22;4280;50.534;8.708;2022-12-16T17:28:29;-5.00;1.00
8487;DHT22;4280;50.534;8.708;2022-12-16T17:31:14;-5.10;1.00
8487;DHT22;4280;50.534;8.708;2022-12-16T17:33:59;-5.20;1.00
8487;DHT22;4280;50.534;8.708;2022-12-16T17:36:45;-5.20;1.00
8487;DHT22;4280;50.534;8.708;2022-12-16T17:39:31;-5.30;1.00
8487;DHT22;4280;50.534;8.708;2022-12-16T17:42:21;-5.20;1.00
8487;DHT22;4280;50.534;8.708;2022-12-16T17:45:08;-5.20;1.00
8487;DHT22;4280;50.534;8.708;2022-12-16T17:47:53;-5.10;1.00
8487;DHT22;4280;50.534;8.708;2022-12-16T17:50:44;-4.90;1.00
8487;DHT22;4280;50.534;8.708;2022-12-16T17:53:30;-5.30;1.00
8487;DHT22;4280;50.534;8.708;2022-12-16T17:56:15;-5.40;1.00
8487;DHT22;4280;50.534;8.708;2022-12-16T17:59:06;-5.50;1.00
8487;DHT22;4280;50.534;8.708;2022-12-16T18:01:52;-5.60;1.00
8487;DHT22;4280;50.534;8.708;2022-12-16T18:04:38;-5.70;1.00
8487;DHT22;4280;50.534;8.708;2022-12-16T18:07:26;-5.70;1.00
8487;DHT22;4280;50.534;8.708;2022-12-16T18:10:08;-5.60;1.00
8487;DHT22;4280;50.534;8.708;2022-12-16T18:12:56;-5.60;1.00
8487;DHT22;4280;50.534;8.708;2022-12-16T18:15:43;-5.70;1.00
8487;DHT22;4280;50.534;8.708;2022-12-16T18:18:33;-5.80;1.00
8487;DHT22;4280;50.534;8.708;2022-12-16T18:21:16;-5.90;1.00
8487;DHT22;4280;50.534;8.708;2022-12-16T18:23:58;-6.00;1.00
8487;DHT22;4280;50.534;8.708;2022-12-16T18:26:40;-6.00;1.00
8487;DHT22;4280;50.534;8.708;2022-12-16T18:29:23;-6.10;1.00
8487;DHT22;4280;50.534;8.708;2022-12-16T18:32:08;-6.10;1.00
8487;DHT22;4280;50.534;8.708;2022-12-16T18:34:51;-6.10;1.00
8487;DHT22;4280;50.534;8.708;2022-12-16T18:37:33;-6.20;1.00
8487;DHT22;4280;50.534;8.708;2022-12-16T18:40:15;-6.20;1.00
8487;DHT22;4280;50.534;8.708;2022-12-16T18:42:58;-6.30;1.00
8487;DHT22;4280;50.534;8.708;2022-12-16T18:45:40;-6.40;1.00
8487;DHT22;4280;50.534;8.708;2022-12-16T18:48:25;-6.40;1.00
8487;DHT22;4280;50.534;8.708;2022-12-16T18:51:23;-6.40;1.00
8487;DHT22;4280;50.534;8.708;2022-12-16T18:54:05;-6.40;1.00
8487;DHT22;4280;50.534;8.708;2022-12-16T18:56:48;-6.40;1.00
8487;DHT22;4280;50.534;8.708;2022-12-16T18:59:30;-6.40;1.00
8487;DHT22;4280;50.534;8.708;2022-12-16T19:02:12;-6.40;1.00
8487;DHT22;4280;50.534;8.708;2022-12-16T19:04:57;-6.40;1.00
8487;DHT22;4280;50.534;8.708;2022-12-16T19:07:40;-6.40;1.00
8487;DHT22;4280;50.534;8.708;2022-12-16T19:10:24;-6.30;1.00
8487;DHT22;4280;50.534;8.708;2022-12-16T19:13:11;-6.40;1.00
8487;DHT22;4280;50.534;8.708;2022-12-16T19:15:53;-6.40;1.00
8487;DHT22;4280;50.534;8.708;2022-12-16T19:18:36;-6.20;1.00
8487;DHT22;4280;50.534;8.708;2022-12-16T19:21:21;-6.30;1.00
8487;DHT22;4280;50.534;8.708;2022-12-16T19:24:03;-6.40;1.00
8487;DHT22;4280;50.534;8.708;2022-12-16T19:26:46;-6.50;1.00
8487;DHT22;4280;50.534;8.708;2022-12-16T19:29:32;-6.60;1.00
8487;DHT22;4280;50.534;8.708;2022-12-16T19:32:24;-6.70;1.00
8487;DHT22;4280;50.534;8.708;2022-12-16T19:35:06;-6.70;1.00
8487;DHT22;4280;50.534;8.708;2022-12-16T19:37:52;-6.80;1.00
8487;DHT22;4280;50.534;8.708;2022-12-16T19:40:34;-6.80;1.00
8487;DHT22;4280;50.534;8.708;2022-12-16T19:43:17;-6.80;1.00
8487;DHT22;4280;50.534;8.708;2022-12-16T19:45:59;-6.80;1.00
8487;DHT22;4280;50.534;8.708;2022-12-16T19:48:42;-6.80;1.00
8487;DHT22;4280;50.534;8.708;2022-12-16T19:51:26;-6.80;1.00
8487;DHT22;4280;50.534;8.708;2022-12-16T19:54:11;-6.90;1.00
8487;DHT22;4280;50.534;8.708;2022-12-16T19:56:54;-6.90;1.00
8487;DHT22;4280;50.534;8.708;2022-12-16T19:59:37;-6.90;1.00
8487;DHT22;4280;50.534;8.708;2022-12-16T20:02:19;-6.90;1.00
8487;DHT22;4280;50.534;8.708;2022-12-16T20:05:02;-6.90;1.00
8487;DHT22;4280;50.534;8.708;2022-12-16T20:07:45;-7.00;1.00
8487;DHT22;4280;50.534;8.708;2022-12-16T20:10:30;-7.00;1.00
8487;DHT22;4280;50.534;8.708;2022-12-16T20:13:17;-7.00;1.00
8487;DHT22;4280;50.534;8.708;2022-12-16T20:16:00;-7.10;1.00
8487;DHT22;4280;50.534;8.708;2022-12-16T20:18:55;-7.00;1.00
8487;DHT22;4280;50.534;8.708;2022-12-16T20:21:38;-7.00;1.00
8487;DHT22;4280;50.534;8.708;2022-12-16T20:24:21;-7.10;1.00
8487;DHT22;4280;50.534;8.708;2022-12-16T20:27:06;-7.10;1.00
8487;DHT22;4280;50.534;8.708;2022-12-16T20:29:48;-7.10;1.00
8487;DHT22;4280;50.534;8.708;2022-12-16T20:32:31;-7.20;1.00
8487;DHT22;4280;50.534;8.708;2022-12-16T20:35:13;-7.00;1.00
8487;DHT22;4280;50.534;8.708;2022-12-16T20:37:56;-7.00;1.00
8487;DHT22;4280;50.534;8.708;2022-12-16T20:40:38;-6.80;1.00
8487;DHT22;4280;50.534;8.708;2022-12-16T20:43:23;-6.50;1.00
8487;DHT22;4280;50.534;8.708;2022-12-16T20:46:06;-6.50;1.00
8487;DHT22;4280;50.534;8.708;2022-12-16T20:48:48;-6.40;1.00
8487;DHT22;4280;50.534;8.708;2022-12-16T20:51:31;-6.50;1.00
8487;DHT22;4280;50.534;8.708;2022-12-16T20:54:13;-6.50;1.00
8487;DHT22;4280;50.534;8.708;2022-12-16T20:56:56;-6.50;1.00
8487;DHT22;4280;50.534;8.708;2022-12-16T20:59:41;-6.50;1.00
8487;DHT22;4280;50.534;8.708;2022-12-16T21:02:24;-6.50;1.00
8487;DHT22;4280;50.534;8.708;2022-12-16T21:05:07;-6.50;1.00
8487;DHT22;4280;50.534;8.708;2022-12-16T21:07:50;-6.50;1.00
8487;DHT22;4280;50.534;8.708;2022-12-16T21:10:46;-6.70;1.00
8487;DHT22;4280;50.534;8.708;2022-12-16T21:13:29;-6.70;1.00
8487;DHT22;4280;50.534;8.708;2022-12-16T21:16:14;-6.70;1.00
8487;DHT22;4280;50.534;8.708;2022-12-16T21:18:57;-6.70;1.00
8487;DHT22;4280;50.534;8.708;2022-12-16T21:21:40;-6.70;1.00
8487;DHT22;4280;50.534;8.708;2022-12-16T21:24:23;-6.70;1.00
8487;DHT22;4280;50.534;8.708;2022-12-16T21:27:05;-6.70;1.00
8487;DHT22;4280;50.534;8.708;2022-12-16T21:29:47;-6.80;1.00
8487;DHT22;4280;50.534;8.708;2022-12-16T21:32:32;-6.80;1.00
8487;DHT22;4280;50.534;8.708;2022-12-16T21:35:15;-6.80;1.00
8487;DHT22;4280;50.534;8.708;2022-12-16T21:37:58;-6.80;1.00
8487;DHT22;4280;50.534;8.708;2022-12-16T21:40:40;-6.70;1.00
8487;DHT22;4280;50.534;8.708;2022-12-16T21:43:22;-6.70;1.00
8487;DHT22;4280;50.534;8.708;2022-12-16T21:46:05;-6.80;1.00
8487;DHT22;4280;50.534;8.708;2022-12-16T21:48:50;-6.80;1.00
8487;DHT22;4280;50.534;8.708;2022-12-16T21:51:32;-7.00;1.00
8487;DHT22;4280;50.534;8.708;2022-12-16T21:54:14;-7.40;1.00
8487;DHT22;4280;50.534;8.708;2022-12-16T21:56:57;-7.60;1.00
8487;DHT22;4280;50.534;8.708;2022-12-16T21:59:39;-7.70;1.00
8487;DHT22;4280;50.534;8.708;2022-12-16T22:02:21;-7.90;1.00
8487;DHT22;4280;50.534;8.708;2022-12-16T22:05:06;-8.00;1.00
8487;DHT22;4280;50.534;8.708;2022-12-16T22:07:49;-7.80;1.00
8487;DHT22;4280;50.534;8.708;2022-12-16T22:10:31;-7.80;1.00
8487;DHT22;4280;50.534;8.708;2022-12-16T22:13:13;-7.90;1.00
8487;DHT22;4280;50.534;8.708;2022-12-16T22:15:56;-8.00;1.00
8487;DHT22;4280;50.534;8.708;2022-12-16T22:18:38;-7.80;1.00
8487;DHT22;4280;50.534;8.708;2022-12-16T22:21:23;-7.80;1.00
8487;DHT22;4280;50.534;8.708;2022-12-16T22:24:11;-7.50;1.00
8487;DHT22;4280;50.534;8.708;2022-12-16T22:26:54;-7.30;1.00
8487;DHT22;4280;50.534;8.708;2022-12-16T22:29:36;-7.20;1.00
8487;DHT22;4280;50.534;8.708;2022-12-16T22:32:18;-7.20;1.00
8487;DHT22;4280;50.534;8.708;2022-12-16T23:02:20;-7.20;1.00
8487;DHT22;4280;50.534;8.708;2022-12-16T23:05:05;-7.90;1.00
8487;DHT22;4280;50.534;8.708;2022-12-16T23:08:05;-7.80;1.00
8487;DHT22;4280;50.534;8.708;2022-12-16T23:10:51;-7.60;1.00
8487;DHT22;4280;50.534;8.708;2022-12-16T23:13:34;-7.50;1.00
8487;DHT22;4280;50.534;8.708;2022-12-16T23:16:17;-7.40;1.00
8487;DHT22;4280;50.534;8.708;2022-12-16T23:19:02;-7.30;1.00
8487;DHT22;4280;50.534;8.708;2022-12-16T23:21:46;-7.30;1.00
8487;DHT22;4280;50.534;8.708;2022-12-16T23:24:28;-7.40;1.00
8487;DHT22;4280;50.534;8.708;2022-12-16T23:27:11;-7.80;1.00
8487;DHT22;4280;50.534;8.708;2022-12-16T23:29:53;-8.00;1.00
8487;DHT22;4280;50.534;8.708;2022-12-16T23:32:35;-8.00;1.00
8487;DHT22;4280;50.534;8.708;2022-12-16T23:35:20;-7.90;1.00
8487;DHT22;4280;50.534;8.708;2022-12-16T23:38:14;-7.80;1.00
8487;DHT22;4280;50.534;8.708;2022-12-16T23:40:57;-7.70;1.00
8487;DHT22;4280;50.534;8.708;2022-12-16T23:43:40;-7.60;1.00
8487;DHT22;4280;50.534;8.708;2022-12-16T23:46:22;-7.60;1.00
8487;DHT22;4280;50.534;8.708;2022-12-16T23:49:04;-7.60;1.00
8487;DHT22;4280;50.534;8.708;2022-12-16T23:51:49;-7.60;1.00
8487;DHT22;4280;50.534;8.708;2022-12-16T23:54:32;-7.60;1.00
8487;DHT22;4280;50.534;8.708;2022-12-16T23:57:14;-7.60;1.00
8487;DHT22;4280;50.534;8.708;2022-12-16T23:59:56;-7.60;1.00
